Time;durP1;ratioP1;P1;durP2;ratioP2;P2;SDS_P1;SDS_P2;PMS_P1;PMS_P2;Temp;Humidity;BMP_temperature;BMP_pressure;BME280_temperature;BME280_humidity;BME280_pressure;Samples;Min_cycle;Max_cycle;Signal;HPM_P1;HPM_P2
2023/07/28 00:00:54;;;;;;;;;;;;;;;24.75;42.99;96368.41;4184192;28;5727;-74
2023/07/28 00:02:57;;;;;;;;;;;;;;;24.76;43.08;96375.44;4184127;28;5806;-74
2023/07/28 00:05:00;;;;;;;;;;;;;;;24.73;43.41;96365.22;4184264;28;5711;-71
2023/07/28 00:07:03;;;;;;;;;;;;;;;24.74;42.98;96370.31;4184072;28;5809;-76
2023/07/28 00:09:06;;;;;;;;;;;;;;;24.73;43.37;96371.41;4184343;28;5810;-74
2023/07/28 00:11:11;;;;;;;;;;;;;;;24.73;43.19;96368.72;4184018;28;5711;-73
2023/07/28 00:13:14;;;;;;;;;;;;;;;24.75;43.06;96380.03;4181902;28;7027;-76
2023/07/28 00:15:18;;;;;;;;;;;;;;;24.74;43.12;96372.22;4183681;28;5734;-71
2023/07/28 00:17:21;;;;;;;;;;;;;;;24.74;43.43;96378.44;4183647;28;5673;-75
2023/07/28 00:19:24;;;;;;;;;;;;;;;24.74;43.32;96367.63;4183537;28;5669;-77
2023/07/28 00:21:27;;;;;;;;;;;;;;;24.74;43.73;96377.63;4180104;28;5968;-76
2023/07/28 00:23:29;;;;;;;;;;;;;;;24.74;43.84;96362.22;4177374;28;5842;-73
2023/07/28 00:25:32;;;;;;;;;;;;;;;24.73;44.00;96371.41;4183892;28;5764;-72
2023/07/28 00:27:35;;;;;;;;;;;;;;;24.74;43.72;96375.72;4181653;28;5699;-72
2023/07/28 00:29:38;;;;;;;;;;;;;;;24.72;44.10;96374.41;4175549;28;5727;-77
2023/07/28 00:31:42;;;;;;;;;;;;;;;24.72;44.01;96374.41;4182082;28;5706;-73
2023/07/28 00:33:45;;;;;;;;;;;;;;;24.73;44.08;96379.53;4183633;28;5713;-74
2023/07/28 00:35:48;;;;;;;;;;;;;;;24.73;44.49;96382.22;4183919;28;5814;-71
2023/07/28 00:37:51;;;;;;;;;;;;;;;24.72;44.28;96374.41;4178856;28;5932;-69
2023/07/28 00:39:53;;;;;;;;;;;;;;;24.72;44.18;96380.63;4180425;28;5821;-71
2023/07/28 00:41:56;;;;;;;;;;;;;;;24.72;44.60;96383.31;4177439;28;5940;-73
2023/07/28 00:43:59;;;;;;;;;;;;;;;24.70;44.14;96385.53;4182966;28;5723;-74
2023/07/28 00:46:02;;;;;;;;;;;;;;;24.72;44.30;96383.31;4186103;28;5718;-74
2023/07/28 00:48:11;;;;;;;;;;;;;;;24.72;44.28;96386.03;4186226;28;5709;-70
2023/07/28 00:50:15;;;;;;;;;;;;;;;24.72;44.78;96396.84;4186796;28;5776;-69
2023/07/28 00:52:17;;;;;;;;;;;;;;;24.71;44.23;96387.13;4186602;28;5717;-69
2023/07/28 00:54:20;;;;;;;;;;;;;;;24.72;44.58;96388.72;4185341;28;5813;-69
2023/07/28 00:56:24;;;;;;;;;;;;;;;24.71;44.57;96395.25;4209352;28;5746;-70
2023/07/28 00:58:27;;;;;;;;;;;;;;;24.71;44.14;96406.03;4218562;28;6360;-69
2023/07/28 01:00:30;;;;;;;;;;;;;;;24.69;44.48;96408.25;4219728;28;5814;-69
2023/07/28 01:02:33;;;;;;;;;;;;;;;24.71;44.30;96421.47;4219549;28;5754;-69
2023/07/28 01:04:37;;;;;;;;;;;;;;;24.70;44.14;96414.44;4219295;28;5769;-67
2023/07/28 01:06:50;;;;;;;;;;;;;;;24.70;44.40;96426.06;4219989;28;5680;-71
2023/07/28 01:08:59;;;;;;;;;;;;;;;24.69;44.18;96416.34;4211901;28;5739;-69
2023/07/28 01:11:01;;;;;;;;;;;;;;;24.72;43.88;96431.19;4219355;28;6353;-70
2023/07/28 01:13:04;;;;;;;;;;;;;;;24.70;44.15;96431.47;4219757;28;5738;-71
2023/07/28 01:15:08;;;;;;;;;;;;;;;24.71;44.10;96427.69;4219677;28;5680;-69
2023/07/28 01:17:11;;;;;;;;;;;;;;;24.72;44.18;96440.09;4219451;28;5126;-69
2023/07/28 01:19:17;;;;;;;;;;;;;;;24.73;44.27;96441.69;4219251;28;5645;-69
2023/07/28 01:21:26;;;;;;;;;;;;;;;24.74;44.17;96447.91;4211200;28;5756;-71
2023/07/28 01:23:42;;;;;;;;;;;;;;;24.76;43.78;96462.72;4219587;28;5678;-69
2023/07/28 01:25:50;;;;;;;;;;;;;;;24.76;43.84;96460.03;4219762;28;5765;-70
2023/07/28 01:27:55;;;;;;;;;;;;;;;24.77;44.05;96458.13;4211204;28;5660;-69
2023/07/28 01:29:59;;;;;;;;;;;;;;;24.76;43.74;96457.31;4219476;28;5838;-69
2023/07/28 01:32:02;;;;;;;;;;;;;;;24.77;43.54;96458.94;4219373;28;5103;-69
2023/07/28 01:34:05;;;;;;;;;;;;;;;24.77;43.77;96460.81;4219217;28;5774;-69
2023/07/28 01:36:08;;;;;;;;;;;;;;;24.78;44.03;96460.53;4219305;28;5668;-70
2023/07/28 01:38:12;;;;;;;;;;;;;;;24.77;44.02;96458.94;4219120;28;5663;-69
2023/07/28 01:40:14;;;;;;;;;;;;;;;24.77;44.04;96464.34;4219427;28;6637;-69
2023/07/28 01:42:17;;;;;;;;;;;;;;;24.79;44.08;96467.53;4219362;28;5626;-71
2023/07/28 01:44:22;;;;;;;;;;;;;;;24.80;44.05;96465.63;4219372;28;5796;-70
2023/07/28 01:46:24;;;;;;;;;;;;;;;24.79;43.57;96467.53;4219166;28;5788;-71
2023/07/28 01:48:27;;;;;;;;;;;;;;;24.81;43.82;96469.97;4218747;28;5814;-72
2023/07/28 01:50:30;;;;;;;;;;;;;;;24.80;43.66;96471.03;4218951;28;5641;-71
2023/07/28 01:52:33;;;;;;;;;;;;;;;24.80;43.85;96469.16;4219014;28;5660;-72
2023/07/28 01:54:36;;;;;;;;;;;;;;;24.80;44.15;96471.84;4219208;28;5761;-72
2023/07/28 01:56:39;;;;;;;;;;;;;;;24.79;44.04;96478.34;4218300;28;5667;-70
2023/07/28 01:58:42;;;;;;;;;;;;;;;24.80;44.22;96479.97;4219238;28;5777;-71
2023/07/28 02:00:46;;;;;;;;;;;;;;;24.81;43.81;96481.59;4219043;28;5867;-70
2023/07/28 02:02:49;;;;;;;;;;;;;;;24.80;44.23;96479.97;4218902;28;5664;-71
2023/07/28 02:04:52;;;;;;;;;;;;;;;24.81;43.82;96487.00;4218695;28;5625;-71
2023/07/28 02:06:55;;;;;;;;;;;;;;;24.81;44.02;96475.38;4210942;28;5738;-70
2023/07/28 02:08:57;;;;;;;;;;;;;;;24.81;43.94;96480.78;4218593;28;5650;-70
2023/07/28 02:11:00;;;;;;;;;;;;;;;24.82;43.78;96477.00;4218713;28;6490;-70
2023/07/28 02:13:03;;;;;;;;;;;;;;;24.82;43.88;96474.28;4218827;28;5796;-72
2023/07/28 02:15:06;;;;;;;;;;;;;;;24.81;44.24;96470.78;4218399;28;5696;-72
2023/07/28 02:17:10;;;;;;;;;;;;;;;24.81;44.31;96468.06;4218520;28;5666;-72
2023/07/28 02:19:13;;;;;;;;;;;;;;;24.81;44.11;96461.88;4218425;28;5672;-71
2023/07/28 02:21:16;;;;;;;;;;;;;;;24.80;44.51;96458.34;4218560;28;5704;-72
2023/07/28 02:23:19;;;;;;;;;;;;;;;24.80;44.32;96458.34;4218569;28;5667;-69
2023/07/28 02:25:22;;;;;;;;;;;;;;;24.80;44.32;96455.63;4218297;28;5758;-71
2023/07/28 02:27:25;;;;;;;;;;;;;;;24.80;44.53;96452.13;4218547;28;5058;-71
2023/07/28 02:29:28;;;;;;;;;;;;;;;24.81;44.27;96442.94;4218431;28;5799;-70
2023/07/28 02:31:31;;;;;;;;;;;;;;;24.81;44.60;96438.34;4218211;28;5693;-70
2023/07/28 02:33:36;;;;;;;;;;;;;;;24.82;44.65;96437.25;4218171;28;5860;-69
2023/07/28 02:35:39;;;;;;;;;;;;;;;24.83;44.54;96438.03;4218457;28;5660;-70
2023/07/28 02:37:42;;;;;;;;;;;;;;;24.80;44.49;96439.41;4218319;28;5732;-70
2023/07/28 02:39:45;;;;;;;;;;;;;;;24.80;44.81;96442.13;4218558;28;5753;-70
2023/07/28 02:41:48;;;;;;;;;;;;;;;24.80;44.44;96446.72;4218224;28;6397;-71
2023/07/28 02:43:51;;;;;;;;;;;;;;;24.80;44.90;96449.41;4218232;28;5675;-70
2023/07/28 02:45:55;;;;;;;;;;;;;;;24.80;44.97;96458.34;4214947;28;5802;-70
2023/07/28 02:47:58;;;;;;;;;;;;;;;24.79;44.77;96450.53;4217927;28;5686;-70
2023/07/28 02:50:02;;;;;;;;;;;;;;;24.78;44.79;96465.13;4217927;28;5779;-70
2023/07/28 02:52:05;;;;;;;;;;;;;;;24.78;44.75;96467.84;4218116;28;6439;-70
2023/07/28 02:54:08;;;;;;;;;;;;;;;24.74;45.22;96453.31;4217895;28;5918;-71
2023/07/28 02:56:11;;;;;;;;;;;;;;;24.77;45.23;96464.34;4217773;28;7725;-71
2023/07/28 02:58:14;;;;;;;;;;;;;;;24.76;45.18;96457.31;4218006;28;5663;-71
2023/07/28 03:00:17;;;;;;;;;;;;;;;24.77;45.34;96461.63;4215369;28;5652;-71
2023/07/28 03:02:20;;;;;;;;;;;;;;;24.75;45.17;96466.53;4212845;28;5759;-72
2023/07/28 03:04:23;;;;;;;;;;;;;;;24.74;45.47;96458.72;4213374;28;5680;-73
2023/07/28 03:06:27;;;;;;;;;;;;;;;24.73;45.41;96463.31;4204130;28;6370;-71
2023/07/28 03:08:30;;;;;;;;;;;;;;;24.71;45.83;96462.81;4216191;28;5703;-71
2023/07/28 03:10:33;;;;;;;;;;;;;;;24.68;45.62;96457.97;4217782;28;5795;-71
2023/07/28 03:12:36;;;;;;;;;;;;;;;24.71;45.84;96459.31;4217805;28;5838;-71
2023/07/28 03:14:38;;;;;;;;;;;;;;;24.71;45.64;96454.69;4214148;28;5960;-71
2023/07/28 03:16:43;;;;;;;;;;;;;;;24.71;45.50;96452.00;4217497;28;5774;-71
2023/07/28 03:18:44;;;;;;;;;;;;;;;24.70;45.63;96453.09;4217378;28;5774;-70
2023/07/28 03:20:47;;;;;;;;;;;;;;;24.69;45.58;96459.59;4217643;28;5633;-71
2023/07/28 03:22:52;;;;;;;;;;;;;;;24.71;45.75;96464.72;4217531;28;5767;-71
2023/07/28 03:24:54;;;;;;;;;;;;;;;24.71;45.72;96464.72;4217512;28;5689;-73
2023/07/28 03:26:57;;;;;;;;;;;;;;;24.68;45.97;96460.66;4217558;28;5633;-71
2023/07/28 03:29:00;;;;;;;;;;;;;;;24.68;45.93;96461.47;4217604;28;5656;-71
2023/07/28 03:31:03;;;;;;;;;;;;;;;24.66;45.93;96462.88;4217466;28;5746;-72
2023/07/28 03:33:06;;;;;;;;;;;;;;;24.67;45.88;96456.34;4217463;28;5653;-71
2023/07/28 03:35:08;;;;;;;;;;;;;;;24.67;45.87;96459.88;4217401;28;5671;-73
2023/07/28 03:37:11;;;;;;;;;;;;;;;24.68;45.50;96460.66;4217251;28;6827;-71
2023/07/28 03:39:15;;;;;;;;;;;;;;;24.69;45.88;96459.59;4217268;28;5684;-71
2023/07/28 03:41:17;;;;;;;;;;;;;;;24.67;45.97;96459.06;4217678;28;5676;-73
2023/07/28 03:43:21;;;;;;;;;;;;;;;24.67;45.88;96450.94;4217350;28;5775;-71
2023/07/28 03:45:24;;;;;;;;;;;;;;;24.67;45.49;96446.34;4217239;28;5656;-72
2023/07/28 03:47:27;;;;;;;;;;;;;;;24.69;45.92;96454.19;4217314;28;5671;-72
2023/07/28 03:49:30;;;;;;;;;;;;;;;24.70;46.09;96458.50;4217093;28;5683;-71
2023/07/28 03:51:33;;;;;;;;;;;;;;;24.68;45.55;96452.56;4217497;28;5829;-71
2023/07/28 03:53:36;;;;;;;;;;;;;;;24.67;45.65;96453.66;4217384;28;5683;-71
2023/07/28 03:55:40;;;;;;;;;;;;;;;24.65;45.75;96455.84;4217017;28;5675;-70
2023/07/28 03:57:43;;;;;;;;;;;;;;;24.68;45.70;96458.75;4217114;28;5770;-70
2023/07/28 03:59:46;;;;;;;;;;;;;;;24.67;46.18;96457.16;4217247;28;5678;-71
2023/07/28 04:01:49;;;;;;;;;;;;;;;24.70;45.77;96452.28;4217072;28;5680;-71
2023/07/28 04:03:52;;;;;;;;;;;;;;;24.70;45.58;96446.88;4216878;28;6394;-70
2023/07/28 04:05:54;;;;;;;;;;;;;;;24.67;46.09;96450.94;4217257;28;5649;-70
2023/07/28 04:07:57;;;;;;;;;;;;;;;24.67;46.04;96459.06;4216575;28;5695;-70
2023/07/28 04:10:00;;;;;;;;;;;;;;;24.66;46.29;96460.97;4216808;28;5746;-72
2023/07/28 04:12:05;;;;;;;;;;;;;;;24.64;45.99;96460.47;4217022;28;5707;-70
2023/07/28 04:14:08;;;;;;;;;;;;;;;24.66;45.98;96462.88;4215521;28;5790;-72
2023/07/28 04:16:11;;;;;;;;;;;;;;;24.66;45.81;96469.06;4205177;28;6365;-71
2023/07/28 04:18:14;;;;;;;;;;;;;;;24.68;46.26;96476.88;4203475;28;5778;-71
2023/07/28 04:20:17;;;;;;;;;;;;;;;24.67;46.12;96469.88;4211837;28;5660;-71
2023/07/28 04:22:21;;;;;;;;;;;;;;;24.68;46.01;96476.88;4208486;28;6372;-71
2023/07/28 04:24:25;;;;;;;;;;;;;;;24.69;46.38;96473.13;4208799;28;7690;-71
2023/07/28 04:26:28;;;;;;;;;;;;;;;24.67;46.07;96467.97;4208713;28;5805;-70
2023/07/28 04:28:32;;;;;;;;;;;;;;;24.66;46.45;96468.28;4207136;28;5881;-70
2023/07/28 04:30:35;;;;;;;;;;;;;;;24.68;46.10;96460.66;4209635;28;6276;-71
2023/07/28 04:32:37;;;;;;;;;;;;;;;24.68;46.16;96466.06;4206788;28;5838;-71
2023/07/28 04:34:40;;;;;;;;;;;;;;;24.68;46.54;96460.66;4209070;28;5673;-71
2023/07/28 04:36:43;;;;;;;;;;;;;;;24.67;46.01;96454.47;4212936;28;5890;-71
2023/07/28 04:38:46;;;;;;;;;;;;;;;24.65;46.55;96461.25;4208884;28;5803;-70
2023/07/28 04:40:49;;;;;;;;;;;;;;;24.66;46.48;96468.28;4209666;28;5672;-71
2023/07/28 04:42:53;;;;;;;;;;;;;;;24.66;46.69;96470.97;4210523;28;5667;-71
2023/07/28 04:44:57;;;;;;;;;;;;;;;24.68;46.28;96471.47;4207870;28;5746;-71
2023/07/28 04:46:59;;;;;;;;;;;;;;;24.70;46.32;96476.63;4206593;28;5738;-71
2023/07/28 04:49:02;;;;;;;;;;;;;;;24.68;46.28;96477.69;4214118;28;5663;-71
2023/07/28 04:51:05;;;;;;;;;;;;;;;24.69;46.49;96483.94;4213946;28;5976;-71
2023/07/28 04:53:08;;;;;;;;;;;;;;;24.69;46.52;96481.22;4206676;28;5736;-71
2023/07/28 04:55:11;;;;;;;;;;;;;;;24.68;46.83;96477.69;4206841;28;5750;-72
2023/07/28 04:57:14;;;;;;;;;;;;;;;24.70;46.67;96484.72;4211749;28;5675;-72
2023/07/28 04:59:18;;;;;;;;;;;;;;;24.70;46.90;96490.13;4219729;28;5783;-71
2023/07/28 05:01:22;;;;;;;;;;;;;;;24.69;46.66;96489.34;4209832;28;5969;-72
2023/07/28 05:03:25;;;;;;;;;;;;;;;24.70;47.03;96499.03;4209318;28;5885;-71
2023/07/28 05:05:29;;;;;;;;;;;;;;;24.69;47.10;96486.63;4208598;28;5667;-71
2023/07/28 05:07:32;;;;;;;;;;;;;;;24.71;46.95;96500.66;4212054;28;5687;-70
2023/07/28 05:09:35;;;;;;;;;;;;;;;24.71;47.11;96492.53;4208887;28;5819;-71
2023/07/28 05:11:37;;;;;;;;;;;;;;;24.72;47.07;96496.84;4211988;28;5656;-70
2023/07/28 05:13:40;;;;;;;;;;;;;;;24.72;47.31;96499.56;4219488;28;5667;-70
2023/07/28 05:15:42;;;;;;;;;;;;;;;24.73;47.55;96498.47;4219491;28;5867;-70
2023/07/28 05:17:46;;;;;;;;;;;;;;;24.72;47.11;96494.16;4219319;28;5782;-71
2023/07/28 05:19:51;;;;;;;;;;;;;;;24.72;47.46;96494.16;4219448;28;5704;-71
2023/07/28 05:21:52;;;;;;;;;;;;;;;24.74;47.76;96497.38;4211530;28;5646;-70
2023/07/28 05:23:55;;;;;;;;;;;;;;;24.74;47.71;96497.38;4219618;28;5733;-71
2023/07/28 05:25:58;;;;;;;;;;;;;;;24.75;47.73;96501.66;4219464;28;5675;-71
2023/07/28 05:28:01;;;;;;;;;;;;;;;24.76;47.95;96500.56;4219481;28;5310;-71
2023/07/28 05:30:05;;;;;;;;;;;;;;;24.77;47.81;96496.78;4218373;28;5671;-71
2023/07/28 05:32:08;;;;;;;;;;;;;;;24.77;48.11;96496.78;4219207;28;5667;-71
2023/07/28 05:34:13;;;;;;;;;;;;;;;24.78;48.03;96502.97;4219130;28;5867;-71
2023/07/28 05:36:16;;;;;;;;;;;;;;;24.78;48.11;96497.56;4219437;28;5663;-70
2023/07/28 05:38:19;;;;;;;;;;;;;;;24.78;48.35;96501.06;4219654;28;5671;-71
2023/07/28 05:40:21;;;;;;;;;;;;;;;24.79;48.14;96491.06;4219412;28;5679;-71
2023/07/28 05:42:25;;;;;;;;;;;;;;;24.78;48.50;96497.56;4219316;28;5682;-71
2023/07/28 05:44:28;;;;;;;;;;;;;;;24.79;48.32;96493.78;4219149;28;5862;-71
2023/07/28 05:46:31;;;;;;;;;;;;;;;24.79;48.42;96499.97;4219288;28;5779;-71
2023/07/28 05:48:33;;;;;;;;;;;;;;;24.78;48.44;96492.97;4219128;28;5675;-70
2023/07/28 05:50:40;;;;;;;;;;;;;;;24.78;48.65;96501.06;4218892;28;5835;-71
2023/07/28 05:52:43;;;;;;;;;;;;;;;24.77;48.68;96495.97;4219068;28;5724;-72
2023/07/28 05:54:46;;;;;;;;;;;;;;;24.78;48.96;96502.97;4217620;28;5519;-68
2023/07/28 05:56:49;;;;;;;;;;;;;;;24.79;48.64;96508.09;4219104;28;5667;-70
2023/07/28 05:58:52;;;;;;;;;;;;;;;24.79;48.84;96508.09;4218940;28;5638;-71
2023/07/28 06:00:55;;;;;;;;;;;;;;;24.79;48.94;96510.78;4211019;28;5675;-71
2023/07/28 06:02:58;;;;;;;;;;;;;;;24.78;48.80;96516.50;4219202;28;5783;-71
2023/07/28 06:05:01;;;;;;;;;;;;;;;24.79;48.58;96515.41;4218813;28;5683;-70
2023/07/28 06:07:06;;;;;;;;;;;;;;;24.79;48.69;96512.69;4218854;28;5735;-70
2023/07/28 06:09:09;;;;;;;;;;;;;;;24.80;48.58;96523.22;4216264;28;5663;-70
2023/07/28 06:11:11;;;;;;;;;;;;;;;24.81;49.08;96526.75;4213008;28;5901;-71
2023/07/28 06:13:14;;;;;;;;;;;;;;;24.82;48.79;96526.47;4218710;28;5754;-71
2023/07/28 06:15:17;;;;;;;;;;;;;;;24.84;48.95;96531.56;4217385;28;5895;-71
2023/07/28 06:17:20;;;;;;;;;;;;;;;24.83;48.71;96530.78;4215212;28;5680;-71
2023/07/28 06:19:24;;;;;;;;;;;;;;;24.84;48.98;96529.66;4218382;28;5774;-70
2023/07/28 06:21:27;;;;;;;;;;;;;;;24.84;48.62;96532.38;4218709;28;5703;-71
2023/07/28 06:23:31;;;;;;;;;;;;;;;24.85;48.60;96536.69;4217128;28;5831;-71
2023/07/28 06:25:34;;;;;;;;;;;;;;;24.85;48.94;96536.69;4218402;28;5675;-71
2023/07/28 06:27:38;;;;;;;;;;;;;;;24.86;48.89;96540.19;4218579;28;5637;-71
2023/07/28 06:29:41;;;;;;;;;;;;;;;24.85;48.94;96536.69;4218767;28;5679;-70
2023/07/28 06:31:44;;;;;;;;;;;;;;;24.86;49.11;96532.88;4218244;28;5734;-71
2023/07/28 06:33:48;;;;;;;;;;;;;;;24.89;48.67;96528.78;4218317;28;5885;-70
2023/07/28 06:35:52;;;;;;;;;;;;;;;24.91;48.66;96529.28;4218274;28;5097;-70
2023/07/28 06:37:54;;;;;;;;;;;;;;;24.91;48.59;96529.28;4210047;28;6468;-71
2023/07/28 06:39:59;;;;;;;;;;;;;;;24.92;48.71;96533.63;4218483;28;5637;-71
2023/07/28 06:42:01;;;;;;;;;;;;;;;24.92;48.88;96526.31;4213069;28;5814;-71
2023/07/28 06:44:05;;;;;;;;;;;;;;;24.93;49.13;96527.94;4218252;28;6368;-73
2023/07/28 06:46:07;;;;;;;;;;;;;;;24.91;48.79;96530.09;4218216;28;5675;-71
2023/07/28 06:48:11;;;;;;;;;;;;;;;24.93;48.92;96536.03;4218444;28;5788;-72
2023/07/28 06:50:14;;;;;;;;;;;;;;;24.95;48.80;96541.97;4218504;28;5667;-73
2023/07/28 06:52:17;;;;;;;;;;;;;;;24.96;48.86;96532.75;4218179;28;5760;-75
2023/07/28 06:54:19;;;;;;;;;;;;;;;24.98;49.04;96541.38;4218026;28;5766;-78
2023/07/28 06:56:23;;;;;;;;;;;;;;;24.98;48.75;96546.78;4218237;28;6446;-72
2023/07/28 06:58:26;;;;;;;;;;;;;;;25.01;48.90;96552.69;4218125;28;6233;-72
2023/07/28 07:00:29;;;;;;;;;;;;;;;25.01;49.16;96545.41;4217933;28;5751;-70
2023/07/28 07:02:32;;;;;;;;;;;;;;;25.03;49.02;96545.13;4217638;28;5763;-71
2023/07/28 07:04:35;;;;;;;;;;;;;;;25.03;48.95;96545.94;4217845;28;6353;-72
2023/07/28 07:06:41;;;;;;;;;;;;;;;25.05;49.40;96553.78;4217887;28;5659;-71
2023/07/28 07:08:44;;;;;;;;;;;;;;;25.07;49.34;96548.88;4217855;28;5717;-71
2023/07/28 07:10:51;;;;;;;;;;;;;;;25.06;49.05;96556.19;4215910;28;5814;-72
2023/07/28 07:12:56;;;;;;;;;;;;;;;25.07;49.13;96549.66;4207392;28;5895;-72
2023/07/28 07:14:59;;;;;;;;;;;;;;;25.09;49.49;96560.19;4205229;28;5824;-72
2023/07/28 07:17:02;;;;;;;;;;;;;;;25.09;49.59;96554.78;4210717;28;5681;-72
2023/07/28 07:19:05;;;;;;;;;;;;;;;25.09;49.28;96550.19;4210055;28;5784;-72
2023/07/28 07:21:08;;;;;;;;;;;;;;;25.09;49.37;96546.66;4208958;28;5700;-71
2023/07/28 07:23:11;;;;;;;;;;;;;;;25.11;49.62;96549.88;4204909;28;5900;-72
2023/07/28 07:25:14;;;;;;;;;;;;;;;25.13;49.55;96559.31;4208869;28;6353;-72
2023/07/28 07:27:17;;;;;;;;;;;;;;;25.14;49.84;96560.94;4210227;28;5877;-72
2023/07/28 07:29:21;;;;;;;;;;;;;;;25.16;49.86;96566.06;4205067;28;5844;-73
2023/07/28 07:31:24;;;;;;;;;;;;;;;25.16;49.94;96563.34;4207282;28;5651;-71
2023/07/28 07:33:27;;;;;;;;;;;;;;;25.17;49.85;96564.97;4205397;28;5759;-70
2023/07/28 07:35:30;;;;;;;;;;;;;;;25.17;49.49;96554.13;4205003;28;5862;-71
2023/07/28 07:37:33;;;;;;;;;;;;;;;25.17;49.96;96559.56;4207068;28;5388;-72
2023/07/28 07:39:36;;;;;;;;;;;;;;;25.19;49.98;96565.47;4209687;28;5692;-72
2023/07/28 07:41:38;;;;;;;;;;;;;;;25.18;49.67;96561.16;4210208;28;5675;-72
2023/07/28 07:43:41;;;;;;;;;;;;;;;25.19;50.14;96560.06;4209970;28;5885;-73
2023/07/28 07:45:44;;;;;;;;;;;;;;;25.21;50.01;96565.97;4207312;28;5919;-73
2023/07/28 07:47:47;;;;;;;;;;;;;;;25.21;49.87;96564.06;4207453;28;5682;-71
2023/07/28 07:49:50;;;;;;;;;;;;;;;25.23;49.93;96574.59;4210827;28;5719;-72
2023/07/28 07:51:53;;;;;;;;;;;;;;;25.23;50.20;96566.47;4206742;28;6659;-72
2023/07/28 07:53:56;;;;;;;;;;;;;;;25.23;49.82;96566.47;4205093;28;5826;-71
2023/07/28 07:55:59;;;;;;;;;;;;;;;25.23;49.91;96563.78;4204984;28;5782;-72
2023/07/28 07:58:03;;;;;;;;;;;;;;;25.24;50.10;96570.78;4210417;28;5678;-70
2023/07/28 08:00:08;;;;;;;;;;;;;;;25.24;49.98;96577.00;4215199;28;5758;-71
2023/07/28 08:02:12;;;;;;;;;;;;;;;25.24;50.13;96571.59;4211068;28;5694;-71
2023/07/28 08:04:15;;;;;;;;;;;;;;;25.25;49.96;96567.00;4215079;28;5739;-71
2023/07/28 08:06:18;;;;;;;;;;;;;;;25.26;50.05;96568.63;4216608;28;5838;-71
2023/07/28 08:08:21;;;;;;;;;;;;;;;25.28;50.38;96566.44;4215423;28;5786;-72
2023/07/28 08:10:24;;;;;;;;;;;;;;;25.29;50.37;96562.63;4216119;28;6511;-71
2023/07/28 08:12:27;;;;;;;;;;;;;;;25.30;50.32;96564.22;4206770;28;5678;-71
2023/07/28 08:14:30;;;;;;;;;;;;;;;25.33;50.34;96568.25;4206603;28;5124;-68
2023/07/28 08:16:33;;;;;;;;;;;;;;;25.34;50.44;96567.13;4216966;28;5922;-68
2023/07/28 08:18:37;;;;;;;;;;;;;;;25.35;50.29;96566.84;4211652;28;5676;-68
2023/07/28 08:20:40;;;;;;;;;;;;;;;25.36;50.37;96568.44;4215546;28;5663;-68
2023/07/28 08:22:43;;;;;;;;;;;;;;;25.38;50.42;96560.06;4217331;28;5675;-66
2023/07/28 08:24:46;;;;;;;;;;;;;;;25.40;50.56;96569.50;4207993;28;5795;-65
2023/07/28 08:26:48;;;;;;;;;;;;;;;25.41;50.74;96571.09;4215371;28;5879;-64
2023/07/28 08:28:51;;;;;;;;;;;;;;;25.43;50.91;96571.59;4216062;28;5667;-66
2023/07/28 08:30:56;;;;;;;;;;;;;;;25.44;50.87;96573.22;4206341;28;5647;-64
2023/07/28 08:32:59;;;;;;;;;;;;;;;25.45;50.80;96569.41;4213807;28;5663;-67
2023/07/28 08:35:04;;;;;;;;;;;;;;;25.47;51.12;96564.50;4213517;28;5679;-68
2023/07/28 08:37:07;;;;;;;;;;;;;;;25.50;50.95;96574.75;4216239;28;5798;-65
2023/07/28 08:39:11;;;;;;;;;;;;;;;25.50;51.35;96569.34;4214348;28;5667;-67
2023/07/28 08:41:14;;;;;;;;;;;;;;;25.52;51.02;96572.56;4215898;28;5795;-69
2023/07/28 08:43:17;;;;;;;;;;;;;;;25.54;51.58;96574.97;4216696;28;5799;-70
2023/07/28 08:45:20;;;;;;;;;;;;;;;25.54;51.31;96573.06;4212795;28;5676;-70
2023/07/28 08:47:24;;;;;;;;;;;;;;;25.55;51.46;96563.84;4203100;28;5926;-70
2023/07/28 08:49:27;;;;;;;;;;;;;;;25.57;51.65;96563.53;4205580;28;5652;-70
2023/07/28 08:51:31;;;;;;;;;;;;;;;25.61;51.48;96569.19;4208825;28;5794;-70
2023/07/28 08:53:35;;;;;;;;;;;;;;;25.63;51.59;96567.00;4209328;28;5675;-69
2023/07/28 08:55:38;;;;;;;;;;;;;;;25.65;51.61;96567.50;4215097;28;5642;-70
2023/07/28 08:57:41;;;;;;;;;;;;;;;25.67;51.74;96566.09;4216516;28;5229;-70
2023/07/28 08:59:47;;;;;;;;;;;;;;;25.68;51.83;96566.91;4216328;28;5679;-70
2023/07/28 09:01:51;;;;;;;;;;;;;;;25.68;51.61;96570.41;4211872;28;5747;-70
2023/07/28 09:03:55;;;;;;;;;;;;;;;25.68;51.54;96570.41;4216013;28;6488;-69
2023/07/28 09:06:01;;;;;;;;;;;;;;;25.72;51.53;96574.19;4217819;28;5637;-70
2023/07/28 09:08:06;;;;;;;;;;;;;;;25.74;51.82;96569.25;4219784;28;5641;-70
2023/07/28 09:10:10;;;;;;;;;;;;;;;25.75;51.88;96570.88;4219667;28;6372;-67
2023/07/28 09:12:13;;;;;;;;;;;;;;;25.74;51.77;96573.88;4219801;28;5119;-66
2023/07/28 09:14:18;;;;;;;;;;;;;;;25.79;51.93;96580.00;4219275;28;5754;-66
2023/07/28 09:16:24;;;;;;;;;;;;;;;25.80;51.64;96569.97;4219388;28;5671;-66
2023/07/28 09:18:28;;;;;;;;;;;;;;;25.82;52.00;96576.72;4219531;28;5754;-66
2023/07/28 09:20:34;;;;;;;;;;;;;;;25.84;51.96;96571.00;4219408;28;5715;-66
2023/07/28 09:22:37;;;;;;;;;;;;;;;25.85;51.72;96569.91;4219397;28;5668;-66
2023/07/28 09:24:41;;;;;;;;;;;;;;;25.87;51.77;96573.13;4219615;28;5791;-66
2023/07/28 09:26:46;;;;;;;;;;;;;;;25.89;52.02;96565.50;4219467;28;5682;-67
2023/07/28 09:28:49;;;;;;;;;;;;;;;25.91;51.78;96565.19;4219434;28;5755;-67
2023/07/28 09:30:53;;;;;;;;;;;;;;;25.92;51.64;96564.91;4219504;28;5784;-67
2023/07/28 09:32:56;;;;;;;;;;;;;;;25.94;52.11;96562.72;4211325;28;6550;-66
2023/07/28 09:35:11;;;;;;;;;;;;;;;25.97;51.99;96561.31;4218947;28;8420;-67
2023/07/28 09:37:15;;;;;;;;;;;;;;;25.97;51.75;96562.13;4219257;28;5671;-67
2023/07/28 09:39:19;;;;;;;;;;;;;;;25.98;51.84;96568.34;4220006;28;6942;-67
2023/07/28 09:41:25;;;;;;;;;;;;;;;26.00;51.72;96572.34;4217471;28;5881;-67
2023/07/28 09:43:28;;;;;;;;;;;;;;;26.00;52.06;96574.25;4234083;27;5711;-67
2023/07/28 09:45:32;;;;;;;;;;;;;;;26.02;52.04;96574.75;4213002;28;5705;-66
2023/07/28 09:47:41;;;;;;;;;;;;;;;26.02;52.12;96574.75;4213053;28;5790;-67
2023/07/28 09:49:48;;;;;;;;;;;;;;;26.03;52.04;96571.75;4218424;28;5786;-66
2023/07/28 09:51:54;;;;;;;;;;;;;;;26.03;51.73;96570.94;4218725;28;6361;-66
2023/07/28 09:54:04;;;;;;;;;;;;;;;26.04;52.05;96570.63;4210725;28;5879;-66
2023/07/28 09:56:09;;;;;;;;;;;;;;;26.06;51.80;96573.88;4208415;28;5914;-66
2023/07/28 09:58:17;;;;;;;;;;;;;;;26.05;51.88;96564.16;4218572;28;5797;-66
2023/07/28 10:00:22;;;;;;;;;;;;;;;26.06;51.73;96567.66;4219095;28;5630;-66
2023/07/28 10:02:26;;;;;;;;;;;;;;;26.06;51.95;96565.75;4218808;28;5887;-66
2023/07/28 10:04:30;;;;;;;;;;;;;;;26.07;51.79;96569.25;4218654;28;5641;-65
2023/07/28 10:06:34;;;;;;;;;;;;;;;26.07;52.04;96571.97;4218392;28;5774;-65
2023/07/28 10:08:38;;;;;;;;;;;;;;;26.08;51.95;96570.88;4210237;28;5671;-66
2023/07/28 10:10:42;;;;;;;;;;;;;;;26.10;51.86;96576.78;4218977;28;5729;-66
2023/07/28 10:12:50;;;;;;;;;;;;;;;26.09;52.02;96570.56;4218171;28;5683;-66
2023/07/28 10:15:03;;;;;;;;;;;;;;;26.11;51.86;96579.19;4209706;28;5758;-66
2023/07/28 10:17:06;;;;;;;;;;;;;;;26.11;51.97;96579.19;4218314;28;5672;-66
2023/07/28 10:19:10;;;;;;;;;;;;;;;26.12;52.11;96569.97;4218121;28;6361;-66
2023/07/28 10:21:17;;;;;;;;;;;;;;;26.12;52.25;96569.16;4218691;28;5789;-66
2023/07/28 10:23:22;;;;;;;;;;;;;;;26.13;51.98;96570.78;4218430;28;5780;-65
2023/07/28 10:25:25;;;;;;;;;;;;;;;26.12;52.15;96564.56;4218220;28;5663;-65
2023/07/28 10:27:33;;;;;;;;;;;;;;;26.13;52.07;96560.72;4218581;28;5680;-65
2023/07/28 10:29:38;;;;;;;;;;;;;;;26.13;51.90;96559.94;4210923;28;5778;-65
2023/07/28 10:31:52;;;;;;;;;;;;;;;26.16;52.21;96558.53;4219005;28;5663;-66
2023/07/28 10:33:55;;;;;;;;;;;;;;;26.18;52.02;96553.63;4206839;28;5922;-67
2023/07/28 10:35:59;;;;;;;;;;;;;;;26.19;52.22;96550.63;4218358;28;5668;-67
2023/07/28 10:38:34;;;;;;;;;;;;;;;26.20;51.95;96551.44;4218188;28;5671;-66
2023/07/28 10:40:38;;;;;;;;;;;;;;;26.20;52.08;96543.31;4216854;28;5780;-66
2023/07/28 10:42:41;;;;;;;;;;;;;;;26.21;51.72;96542.19;4218000;28;5776;-66
2023/07/28 10:44:44;;;;;;;;;;;;;;;26.23;51.61;96543.50;4217775;28;5822;-67
2023/07/28 10:46:47;;;;;;;;;;;;;;;26.24;51.53;96547.00;4217733;28;5618;-67
2023/07/28 10:48:51;;;;;;;;;;;;;;;26.26;51.63;96540.19;4217816;28;5663;-65
2023/07/28 10:50:54;;;;;;;;;;;;;;;26.28;51.31;96548.03;4206594;28;6667;-65
2023/07/28 10:52:58;;;;;;;;;;;;;;;26.28;51.52;96548.84;4210399;28;5664;-66